ADDS METAR Data INFO
IDs: Format: Raw Decoded Include TAF

Data at: 0106 UTC 21 Oct 2017

KMGR 210055Z AUTO 00000KT 10SM CLR 20/15 A3015 RMK AO2
KMGR 210035Z AUTO 00000KT 10SM CLR 20/15 A3015 RMK AO2
KMGR 210015Z AUTO 00000KT 10SM CLR 20/14 A3015 RMK AO2
KMGR 202355Z AUTO 00000KT 10SM CLR 21/15 A3015 RMK AO2
KMGR 202335Z AUTO 00000KT 10SM CLR 22/14 A3015 RMK AO2
KMGR 202315Z AUTO 00000KT 10SM CLR 23/14 A3015 RMK AO2
KMGR 202255Z AUTO 00000KT 5SM HZ CLR 25/13 A3014 RMK AO2
KMGR 202235Z AUTO 00000KT 7SM CLR 26/13 A3014 RMK AO2
KMGR 202215Z AUTO 06003KT 10SM CLR 26/13 A3014 RMK AO2
KMGR 202155Z AUTO 06004KT 10SM CLR 27/12 A3014 RMK AO2
KMGR 202135Z AUTO 00000KT 10SM CLR 27/12 A3014 RMK AO2
KMGR 202115Z AUTO 08004KT 10SM CLR 28/12 A3014 RMK AO2
KMGR 202055Z AUTO 06005KT 10SM CLR 28/12 A3014 RMK AO2
KMGR 202035Z AUTO 09004KT 10SM CLR 28/12 A3015 RMK AO2
KMGR 202015Z AUTO 04004KT 10SM CLR 28/12 A3015 RMK AO2
KMGR 201955Z AUTO 06005KT 10SM CLR 28/12 A3016 RMK AO2
KMGR 201935Z AUTO 07007KT 10SM CLR 28/12 A3016 RMK AO2
KMGR 201915Z AUTO 06007KT 10SM CLR 28/12 A3016 RMK AO2
KMGR 201855Z AUTO 10004KT 10SM CLR 27/12 A3016 RMK AO2
KMGR 201835Z AUTO 08004KT 10SM CLR 27/12 A3017 RMK AO2
KMGR 201815Z AUTO 07005KT 10SM CLR 27/13 A3018 RMK AO2
KMGR 201755Z AUTO 07004KT 10SM CLR 27/14 A3019 RMK AO2
KMGR 201735Z AUTO 02004KT 10SM CLR 26/14 A3020 RMK AO2
KMGR 201715Z AUTO 00000KT 10SM CLR 26/15 A3021 RMK AO2
KMGR 201655Z AUTO 07006KT 357V077 10SM CLR 26/15 A3022 RMK AO2
KMGR 201635Z AUTO 02005KT 10SM CLR 25/14 A3023 RMK AO2
KMGR 201615Z AUTO 03006KT 10SM CLR 25/13 A3024 RMK AO2
KMGR 201555Z AUTO 03006KT 10SM CLR 24/13 A3024 RMK AO2
KMGR 201535Z AUTO 05006KT 10SM CLR 24/12 A3024 RMK AO2
KMGR 201515Z AUTO 07006KT 10SM CLR 23/13 A3025 RMK AO2
KMGR 201455Z AUTO 05007KT 10SM CLR 22/13 A3026 RMK AO2
KMGR 201435Z AUTO 08004KT 10SM CLR 22/13 A3026 RMK AO2
KMGR 201415Z AUTO 05004KT 10SM CLR 21/13 A3026 RMK AO2
KMGR 201355Z AUTO 05006KT 10SM CLR 20/14 A3025 RMK AO2
KMGR 201335Z AUTO 04005KT 10SM CLR 19/14 A3025 RMK AO2
KMGR 201315Z AUTO 03005KT 10SM CLR 18/13 A3024 RMK AO2
KMGR 201255Z AUTO 05003KT 10SM CLR 17/13 A3023 RMK AO2
KMGR 201235Z AUTO 05003KT 10SM CLR 16/13 A3023 RMK AO2
KMGR 201215Z AUTO 03004KT 10SM CLR 16/13 A3023 RMK AO2
KMGR 201155Z AUTO 03003KT 10SM CLR 15/13 A3023 RMK AO2
KMGR 201135Z AUTO 03004KT 10SM CLR 15/13 A3023 RMK AO2
KMGR 201115Z AUTO 03003KT 10SM CLR 15/13 A3023 RMK AO2
KMGR 201055Z AUTO 00000KT 10SM CLR 15/13 A3023 RMK AO2
KMGR 201035Z AUTO 00000KT 10SM CLR 15/13 A3023 RMK AO2
KMGR 201015Z AUTO 02004KT 10SM CLR 15/13 A3022 RMK AO2
KMGR 200955Z AUTO 04003KT 10SM CLR 15/13 A3021 RMK AO2
KMGR 200935Z AUTO 03003KT 10SM CLR 15/13 A3021 RMK AO2
KMGR 200915Z AUTO 03003KT 10SM CLR 15/13 A3021 RMK AO2
KMGR 200855Z AUTO 00000KT 10SM CLR 16/13 A3021 RMK AO2
KMGR 200835Z AUTO 04003KT 10SM CLR 16/13 A3021 RMK AO2
KMGR 200815Z AUTO 00000KT 10SM CLR 16/13 A3021 RMK AO2
KMGR 200755Z AUTO 04004KT 10SM CLR 16/13 A3020 RMK AO2
KMGR 200735Z AUTO 03003KT 10SM CLR 16/13 A3020 RMK AO2
KMGR 200715Z AUTO 04003KT 10SM CLR 16/13 A3020 RMK AO2
KMGR 200655Z AUTO 02004KT 10SM CLR 16/13 A3020 RMK AO2
KMGR 200635Z AUTO 00000KT 10SM CLR 17/13 A3021 RMK AO2
KMGR 200615Z AUTO 03003KT 10SM CLR 16/13 A3021 RMK AO2
KMGR 200555Z AUTO 00000KT 10SM CLR 17/13 A3021 RMK AO2
KMGR 200535Z AUTO 00000KT 10SM CLR 17/13 A3021 RMK AO2
KMGR 200515Z AUTO 04003KT 10SM CLR 17/13 A3021 RMK AO2
KMGR 200455Z AUTO 00000KT 10SM CLR 18/13 A3022 RMK AO2
KMGR 200435Z AUTO 00000KT 10SM CLR 18/13 A3022 RMK AO2
KMGR 200415Z AUTO 04003KT 10SM CLR 19/13 A3021 RMK AO2
KMGR 200355Z AUTO 04003KT 10SM CLR 19/13 A3022 RMK AO2
KMGR 200335Z AUTO 04003KT 10SM CLR 18/13 A3022 RMK AO2
KMGR 200315Z AUTO 00000KT 10SM CLR 18/13 A3022 RMK AO2
KMGR 200255Z AUTO 00000KT 10SM CLR 19/13 A3021 RMK AO2
KMGR 200235Z AUTO 00000KT 10SM CLR 19/13 A3021 RMK AO2
KMGR 200215Z AUTO 03003KT 10SM CLR 20/13 A3021 RMK AO2
KMGR 200155Z AUTO 00000KT 10SM CLR 20/13 A3020 RMK AO2
KMGR 200135Z AUTO 00000KT 10SM CLR 20/14 A3020 RMK AO2
KMGR 200115Z AUTO 00000KT 10SM CLR 20/14 A3020 RMK AO2
KMGR 200055Z AUTO 00000KT 10SM CLR 20/15 A3019 RMK AO2
KMGR 200035Z AUTO 00000KT 10SM CLR 20/15 A3019 RMK AO2
KMGR 200015Z AUTO 00000KT 10SM CLR 21/15 A3019 RMK AO2
KMGR 192355Z AUTO 00000KT 10SM CLR 21/15 A3018 RMK AO2
KMGR 192335Z AUTO 00000KT 10SM CLR 22/14 A3018 RMK AO2
KMGR 192315Z AUTO 04003KT 10SM CLR 23/14 A3017 RMK AO2
KMGR 192255Z AUTO 04003KT 10SM CLR 25/14 A3016 RMK AO2
KMGR 192235Z AUTO 04004KT 10SM CLR 25/13 A3016 RMK AO2
KMGR 192215Z AUTO 04006KT 10SM CLR 26/13 A3016 RMK AO2
KMGR 192155Z AUTO 04005KT 10SM CLR 26/13 A3016 RMK AO2
KMGR 192135Z AUTO 03006KT 10SM CLR 27/13 A3016 RMK AO2
KMGR 192115Z AUTO 03007KT 10SM CLR 27/13 A3016 RMK AO2
KMGR 192055Z AUTO 03007KT 10SM CLR 27/13 A3016 RMK AO2
KMGR 192035Z AUTO 03005KT 10SM CLR 27/13 A3016 RMK AO2
KMGR 192015Z AUTO 05007KT 007V067 10SM CLR 27/13 A3017 RMK AO2
KMGR 191955Z AUTO 08008KT 10SM CLR 27/13 A3017 RMK AO2
KMGR 191935Z AUTO 03008KT 357V067 10SM CLR 27/13 A3017 RMK AO2
KMGR 191915Z AUTO 03009KT 10SM CLR 27/13 A3018 RMK AO2
KMGR 191855Z AUTO 05005KT 10SM CLR 27/13 A3018 RMK AO2
KMGR 191835Z AUTO 04007KT 017V087 10SM CLR 27/13 A3020 RMK AO2
KMGR 191815Z AUTO 05005KT 357V077 10SM CLR 27/13 A3020 RMK AO2
KMGR 191755Z AUTO 06008KT 10SM CLR 26/13 A3022 RMK AO2
KMGR 191735Z AUTO 03006KT 10SM CLR 26/13 A3022 RMK AO2
KMGR 191715Z AUTO 05010G14KT 007V067 10SM CLR 26/13 A3023 RMK AO2
KMGR 191655Z AUTO 06009KT 10SM CLR 26/13 A3025 RMK AO2
KMGR 191630Z AUTO 04008KT 027V087 10SM CLR 25/13 A3026 RMK AO2
KMGR 191615Z AUTO 05009G14KT 10SM CLR 24/13 A3026 RMK AO2
KMGR 191555Z AUTO 05010KT 10SM CLR 23/13 A3026 RMK AO2
KMGR 191535Z AUTO 04007KT 10SM CLR 23/13 A3027 RMK AO2
KMGR 191515Z AUTO 04006KT 10SM CLR 22/13 A3027 RMK AO2
KMGR 191455Z AUTO 05005KT 10SM CLR 21/13 A3027 RMK AO2
KMGR 191435Z AUTO 03008KT 10SM CLR 20/13 A3026 RMK AO2
KMGR 191415Z AUTO 04005KT 10SM CLR 20/13 A3026 RMK AO2
KMGR 191355Z AUTO 05004KT 10SM CLR 18/13 A3025 RMK AO2
KMGR 191335Z AUTO 05005KT 10SM CLR 17/13 A3025 RMK AO2
KMGR 191315Z AUTO 05004KT 10SM CLR 17/13 A3024 RMK AO2